sensor_id;sensor_type;location;lat;lon;timestamp;pressure;altitude;pressure_sealevel;temperature;humidity
23473;BME280;11909;52.516;13.564;2023-08-24T00:00:00;101213.31;;;18.66;80.96
23473;BME280;11909;52.516;13.564;2023-08-24T00:02:28;101205.66;;;18.63;81.79
23473;BME280;11909;52.516;13.564;2023-08-24T00:04:56;101203.03;;;18.58;82.07
23473;BME280;11909;52.516;13.564;2023-08-24T00:07:24;101211.06;;;18.59;81.74
23473;BME280;11909;52.516;13.564;2023-08-24T00:09:53;101204.81;;;18.54;81.93
23473;BME280;11909;52.516;13.564;2023-08-24T00:12:22;101208.06;;;18.47;82.45
23473;BME280;11909;52.516;13.564;2023-08-24T00:14:49;101211.34;;;18.49;81.99
23473;BME280;11909;52.516;13.564;2023-08-24T00:17:17;101206.28;;;18.51;81.78
23473;BME280;11909;52.516;13.564;2023-08-24T00:19:45;101203.50;;;18.51;81.82
23473;BME280;11909;52.516;13.564;2023-08-24T00:22:13;101198.44;;;18.53;82.33
23473;BME280;11909;52.516;13.564;2023-08-24T00:24:41;101200.88;;;18.46;82.78
23473;BME280;11909;52.516;13.564;2023-08-24T00:27:10;101192.72;;;18.49;83.00
23473;BME280;11909;52.516;13.564;2023-08-24T00:29:40;101191.41;;;18.47;83.26
23473;BME280;11909;52.516;13.564;2023-08-24T00:32:08;101190.75;;;18.50;83.22
23473;BME280;11909;52.516;13.564;2023-08-24T00:34:36;101187.28;;;18.44;83.13
23473;BME280;11909;52.516;13.564;2023-08-24T00:37:04;101188.31;;;18.48;83.20
23473;BME280;11909;52.516;13.564;2023-08-24T00:39:32;101194.50;;;18.45;83.15
23473;BME280;11909;52.516;13.564;2023-08-24T00:42:00;101201.03;;;18.41;82.92
23473;BME280;11909;52.516;13.564;2023-08-24T00:44:29;101200.19;;;18.31;82.37
23473;BME280;11909;52.516;13.564;2023-08-24T00:46:58;101205.38;;;18.24;82.43
23473;BME280;11909;52.516;13.564;2023-08-24T00:49:26;101199.81;;;18.15;82.61
23473;BME280;11909;52.516;13.564;2023-08-24T00:51:54;101195.69;;;18.04;83.87
23473;BME280;11909;52.516;13.564;2023-08-24T00:54:22;101189.31;;;18.03;84.24
23473;BME280;11909;52.516;13.564;2023-08-24T00:56:50;101194.88;;;18.12;84.23
23473;BME280;11909;52.516;13.564;2023-08-24T00:59:18;101191.63;;;18.10;84.07
23473;BME280;11909;52.516;13.564;2023-08-24T01:01:48;101190.28;;;18.08;84.13
23473;BME280;11909;52.516;13.564;2023-08-24T01:04:17;101188.16;;;18.04;84.24
23473;BME280;11909;52.516;13.564;2023-08-24T01:06:45;101183.25;;;18.01;84.39
23473;BME280;11909;52.516;13.564;2023-08-24T01:09:13;101189.56;;;17.93;85.85
23473;BME280;11909;52.516;13.564;2023-08-24T01:11:48;101178.22;;;17.81;87.03
23473;BME280;11909;52.516;13.564;2023-08-24T01:14:23;101183.22;;;17.70;87.46
23473;BME280;11909;52.516;13.564;2023-08-24T01:17:01;101184.22;;;17.65;87.90
23473;BME280;11909;52.516;13.564;2023-08-24T01:19:37;101183.19;;;17.61;87.67
23473;BME280;11909;52.516;13.564;2023-08-24T01:22:16;101176.00;;;17.60;88.00
23473;BME280;11909;52.516;13.564;2023-08-24T01:24:53;101172.91;;;17.61;88.01
23473;BME280;11909;52.516;13.564;2023-08-24T01:27:23;101181.25;;;17.61;87.95
23473;BME280;11909;52.516;13.564;2023-08-24T01:29:52;101189.44;;;17.67;87.78
23473;BME280;11909;52.516;13.564;2023-08-24T01:32:23;101178.31;;;17.67;87.71
23473;BME280;11909;52.516;13.564;2023-08-24T01:34:51;101183.88;;;17.67;87.81
23473;BME280;11909;52.516;13.564;2023-08-24T01:37:19;101190.25;;;17.67;87.83
23473;BME280;11909;52.516;13.564;2023-08-24T01:39:51;101178.66;;;17.65;88.74
23473;BME280;11909;52.516;13.564;2023-08-24T01:42:25;101184.81;;;17.62;89.47
23473;BME280;11909;52.516;13.564;2023-08-24T01:44:56;101185.31;;;17.64;89.47
23473;BME280;11909;52.516;13.564;2023-08-24T01:47:27;101187.16;;;17.69;89.75
23473;BME280;11909;52.516;13.564;2023-08-24T01:49:57;101183.22;;;17.70;90.12
23473;BME280;11909;52.516;13.564;2023-08-24T01:52:26;101177.53;;;17.66;91.12
23473;BME280;11909;52.516;13.564;2023-08-24T01:54:55;101181.09;;;17.67;91.29
23473;BME280;11909;52.516;13.564;2023-08-24T01:57:24;101181.59;;;17.69;91.25
23473;BME280;11909;52.516;13.564;2023-08-24T01:59:52;101178.66;;;17.65;91.30
23473;BME280;11909;52.516;13.564;2023-08-24T02:02:20;101172.91;;;17.61;91.59
23473;BME280;11909;52.516;13.564;2023-08-24T02:04:49;101164.78;;;17.65;91.46
23473;BME280;11909;52.516;13.564;2023-08-24T02:07:16;101159.88;;;17.71;91.02
23473;BME280;11909;52.516;13.564;2023-08-24T02:09:44;101156.81;;;17.72;91.34
23473;BME280;11909;52.516;13.564;2023-08-24T02:12:12;101164.50;;;17.75;91.41
23473;BME280;11909;52.516;13.564;2023-08-24T02:14:41;101157.50;;;17.78;91.25
23473;BME280;11909;52.516;13.564;2023-08-24T02:17:09;101164.69;;;17.79;91.21
23473;BME280;11909;52.516;13.564;2023-08-24T02:19:37;101164.34;;;17.81;91.48
23473;BME280;11909;52.516;13.564;2023-08-24T02:22:05;101168.44;;;17.83;91.89
23473;BME280;11909;52.516;13.564;2023-08-24T02:24:33;101161.75;;;17.84;92.27
23473;BME280;11909;52.516;13.564;2023-08-24T02:27:01;101164.53;;;17.84;92.55
23473;BME280;11909;52.516;13.564;2023-08-24T02:29:29;101161.75;;;17.84;92.63
23473;BME280;11909;52.516;13.564;2023-08-24T02:31:58;101166.16;;;17.85;92.75
23473;BME280;11909;52.516;13.564;2023-08-24T02:34:26;101163.06;;;17.87;93.14
23473;BME280;11909;52.516;13.564;2023-08-24T02:36:56;101164.56;;;17.93;93.40
23473;BME280;11909;52.516;13.564;2023-08-24T02:39:24;101166.38;;;17.98;93.66
23473;BME280;11909;52.516;13.564;2023-08-24T02:41:52;101166.78;;;18.05;93.67
23473;BME280;11909;52.516;13.564;2023-08-24T02:44:20;101169.22;;;18.06;93.66
23473;BME280;11909;52.516;13.564;2023-08-24T02:46:48;101172.31;;;18.05;93.29
23473;BME280;11909;52.516;13.564;2023-08-24T02:49:18;101167.75;;;18.09;93.69
23473;BME280;11909;52.516;13.564;2023-08-24T02:51:46;101160.56;;;18.08;94.03
23473;BME280;11909;52.516;13.564;2023-08-24T02:54:13;101154.13;;;17.99;94.53
23473;BME280;11909;52.516;13.564;2023-08-24T02:56:41;101162.59;;;17.94;95.21
23473;BME280;11909;52.516;13.564;2023-08-24T02:59:09;101162.94;;;17.92;95.03
23473;BME280;11909;52.516;13.564;2023-08-24T03:01:37;101155.91;;;17.95;94.83
23473;BME280;11909;52.516;13.564;2023-08-24T03:04:07;101154.28;;;17.94;95.04
23473;BME280;11909;52.516;13.564;2023-08-24T03:06:37;101152.81;;;17.96;95.20
23473;BME280;11909;52.516;13.564;2023-08-24T03:09:04;101161.16;;;17.96;95.69
23473;BME280;11909;52.516;13.564;2023-08-24T03:11:32;101162.44;;;17.90;95.65
23473;BME280;11909;52.516;13.564;2023-08-24T03:14:00;101158.03;;;17.89;96.30
23473;BME280;11909;52.516;13.564;2023-08-24T03:16:28;101162.09;;;17.91;96.05
23473;BME280;11909;52.516;13.564;2023-08-24T03:18:56;101156.56;;;17.91;95.41
23473;BME280;11909;52.516;13.564;2023-08-24T03:21:25;101156.75;;;17.95;95.36
23473;BME280;11909;52.516;13.564;2023-08-24T03:23:54;101154.78;;;17.96;95.18
23473;BME280;11909;52.516;13.564;2023-08-24T03:26:22;101152.47;;;17.98;95.14
23473;BME280;11909;52.516;13.564;2023-08-24T03:28:50;101164.91;;;18.00;94.69
23473;BME280;11909;52.516;13.564;2023-08-24T03:31:18;101160.50;;;17.99;94.67
23473;BME280;11909;52.516;13.564;2023-08-24T03:33:46;101164.88;;;17.91;94.76
23473;BME280;11909;52.516;13.564;2023-08-24T03:36:14;101162.75;;;17.88;94.82
23473;BME280;11909;52.516;13.564;2023-08-24T03:38:42;101160.28;;;17.87;94.88
23473;BME280;11909;52.516;13.564;2023-08-24T03:41:11;101160.94;;;17.84;95.53
23473;BME280;11909;52.516;13.564;2023-08-24T03:43:39;101145.09;;;17.84;96.46
23473;BME280;11909;52.516;13.564;2023-08-24T03:46:07;101150.16;;;17.82;96.56
23473;BME280;11909;52.516;13.564;2023-08-24T03:48:35;101150.31;;;17.86;96.28
23473;BME280;11909;52.516;13.564;2023-08-24T03:51:03;101148.88;;;17.88;95.50
23473;BME280;11909;52.516;13.564;2023-08-24T03:53:30;101150.84;;;17.88;95.73
23473;BME280;11909;52.516;13.564;2023-08-24T03:55:59;101134.50;;;17.86;95.91
23473;BME280;11909;52.516;13.564;2023-08-24T03:58:28;101143.13;;;17.85;95.95
23473;BME280;11909;52.516;13.564;2023-08-24T04:00:56;101143.47;;;17.83;96.41
23473;BME280;11909;52.516;13.564;2023-08-24T04:03:24;101136.28;;;17.82;96.65
23473;BME280;11909;52.516;13.564;2023-08-24T04:05:52;101137.28;;;17.86;96.66
23473;BME280;11909;52.516;13.564;2023-08-24T04:08:20;101138.91;;;17.87;95.98
23473;BME280;11909;52.516;13.564;2023-08-24T04:10:48;101138.06;;;17.87;95.72
23473;BME280;11909;52.516;13.564;2023-08-24T04:13:15;101138.41;;;17.85;95.85
23473;BME280;11909;52.516;13.564;2023-08-24T04:15:45;101141.34;;;17.80;95.83
23473;BME280;11909;52.516;13.564;2023-08-24T04:18:13;101142.47;;;17.79;96.40
23473;BME280;11909;52.516;13.564;2023-08-24T04:20:41;101138.06;;;17.78;96.60
23473;BME280;11909;52.516;13.564;2023-08-24T04:23:09;101138.88;;;17.78;96.28
23473;BME280;11909;52.516;13.564;2023-08-24T04:25:39;101144.13;;;17.80;96.40
23473;BME280;11909;52.516;13.564;2023-08-24T04:28:07;101142.31;;;17.84;96.27
23473;BME280;11909;52.516;13.564;2023-08-24T04:30:35;101146.75;;;17.85;95.58
23473;BME280;11909;52.516;13.564;2023-08-24T04:33:04;101143.13;;;17.85;95.47
23473;BME280;11909;52.516;13.564;2023-08-24T04:35:33;101140.34;;;17.85;95.43
23473;BME280;11909;52.516;13.564;2023-08-24T04:38:01;101151.94;;;17.87;95.91
23473;BME280;11909;52.516;13.564;2023-08-24T04:40:38;101148.84;;;17.80;96.26
23473;BME280;11909;52.516;13.564;2023-08-24T04:43:10;101154.06;;;17.81;96.28
23473;BME280;11909;52.516;13.564;2023-08-24T04:45:38;101148.03;;;17.79;97.07
23473;BME280;11909;52.516;13.564;2023-08-24T04:48:08;101140.50;;;17.80;97.51
23473;BME280;11909;52.516;13.564;2023-08-24T04:50:36;101147.38;;;17.82;97.10
23473;BME280;11909;52.516;13.564;2023-08-24T04:53:03;101144.59;;;17.82;97.04
23473;BME280;11909;52.516;13.564;2023-08-24T04:55:31;101153.44;;;17.84;96.53
23473;BME280;11909;52.516;13.564;2023-08-24T04:57:59;101148.19;;;17.83;97.02
23473;BME280;11909;52.516;13.564;2023-08-24T05:00:27;101148.38;;;17.86;96.77
23473;BME280;11909;52.516;13.564;2023-08-24T05:02:55;101156.41;;;17.88;96.67
23473;BME280;11909;52.516;13.564;2023-08-24T05:05:25;101156.56;;;17.91;96.28
23473;BME280;11909;52.516;13.564;2023-08-24T05:07:53;101156.41;;;17.97;95.66
23473;BME280;11909;52.516;13.564;2023-08-24T05:10:21;101160.19;;;18.01;95.04
23473;BME280;11909;52.516;13.564;2023-08-24T05:12:49;101162.03;;;18.05;95.42
23473;BME280;11909;52.516;13.564;2023-08-24T05:15:17;101153.69;;;18.05;96.50
23473;BME280;11909;52.516;13.564;2023-08-24T05:17:45;101165.44;;;18.02;96.10
23473;BME280;11909;52.516;13.564;2023-08-24T05:20:14;101158.75;;;18.03;95.90
23473;BME280;11909;52.516;13.564;2023-08-24T05:22:43;101156.66;;;18.09;95.19
23473;BME280;11909;52.516;13.564;2023-08-24T05:25:11;101157.97;;;18.12;96.11
23473;BME280;11909;52.516;13.564;2023-08-24T05:27:39;101151.09;;;18.09;97.25
23473;BME280;11909;52.516;13.564;2023-08-24T05:30:08;101165.47;;;18.11;97.50
23473;BME280;11909;52.516;13.564;2023-08-24T05:32:36;101155.69;;;18.14;96.94
23473;BME280;11909;52.516;13.564;2023-08-24T05:35:06;101156.34;;;18.19;96.51
23473;BME280;11909;52.516;13.564;2023-08-24T05:37:34;101157.38;;;18.24;96.07
23473;BME280;11909;52.516;13.564;2023-08-24T05:40:04;101161.94;;;18.28;96.00
23473;BME280;11909;52.516;13.564;2023-08-24T05:42:33;101160.47;;;18.31;95.72
23473;BME280;11909;52.516;13.564;2023-08-24T05:45:03;101159.81;;;18.34;94.82
23473;BME280;11909;52.516;13.564;2023-08-24T05:47:31;101154.75;;;18.36;93.94
23473;BME280;11909;52.516;13.564;2023-08-24T05:49:59;101160.31;;;18.36;90.94
23473;BME280;11909;52.516;13.564;2023-08-24T05:52:27;101155.94;;;18.44;89.98
23473;BME280;11909;52.516;13.564;2023-08-24T05:54:55;101161.16;;;18.54;89.70
23473;BME280;11909;52.516;13.564;2023-08-24T05:57:25;101168.72;;;18.62;88.99
23473;BME280;11909;52.516;13.564;2023-08-24T05:59:52;101170.66;;;18.71;86.96
23473;BME280;11909;52.516;13.564;2023-08-24T06:02:21;101170.19;;;18.77;84.66
23473;BME280;11909;52.516;13.564;2023-08-24T06:04:48;101171.00;;;18.78;85.37
23473;BME280;11909;52.516;13.564;2023-08-24T06:07:17;101159.72;;;18.83;85.81
23473;BME280;11909;52.516;13.564;2023-08-24T06:09:44;101170.38;;;18.99;82.89
23473;BME280;11909;52.516;13.564;2023-08-24T06:12:13;101167.72;;;18.94;83.11
23473;BME280;11909;52.516;13.564;2023-08-24T06:14:42;101165.28;;;19.01;83.82
23473;BME280;11909;52.516;13.564;2023-08-24T06:17:09;101161.72;;;19.00;83.79
23473;BME280;11909;52.516;13.564;2023-08-24T06:19:37;101167.59;;;19.08;83.33
23473;BME280;11909;52.516;13.564;2023-08-24T06:22:05;101171.03;;;19.22;81.54
23473;BME280;11909;52.516;13.564;2023-08-24T06:24:33;101175.94;;;19.25;81.80
23473;BME280;11909;52.516;13.564;2023-08-24T06:27:01;101167.56;;;19.34;81.25
23473;BME280;11909;52.516;13.564;2023-08-24T06:29:29;101177.19;;;19.37;81.43
23473;BME280;11909;52.516;13.564;2023-08-24T06:31:58;101176.09;;;19.38;81.12
23473;BME280;11909;52.516;13.564;2023-08-24T06:34:26;101172.94;;;19.39;80.82
23473;BME280;11909;52.516;13.564;2023-08-24T06:36:55;101175.22;;;19.46;80.59
23473;BME280;11909;52.516;13.564;2023-08-24T06:39:23;101169.97;;;19.53;79.99
23473;BME280;11909;52.516;13.564;2023-08-24T06:41:51;101174.03;;;19.65;79.27
23473;BME280;11909;52.516;13.564;2023-08-24T06:44:19;101176.75;;;19.82;78.09
23473;BME280;11909;52.516;13.564;2023-08-24T06:46:47;101166.00;;;19.72;79.09
23473;BME280;11909;52.516;13.564;2023-08-24T06:49:16;101168.78;;;19.72;78.67
23473;BME280;11909;52.516;13.564;2023-08-24T06:51:45;101173.81;;;19.87;77.75
23473;BME280;11909;52.516;13.564;2023-08-24T06:54:13;101168.72;;;19.89;78.34
23473;BME280;11909;52.516;13.564;2023-08-24T06:56:41;101174.97;;;19.86;79.11
23473;BME280;11909;52.516;13.564;2023-08-24T06:59:09;101168.72;;;19.89;79.97
23473;BME280;11909;52.516;13.564;2023-08-24T07:01:39;101174.94;;;19.95;80.00
23473;BME280;11909;52.516;13.564;2023-08-24T07:04:08;101194.00;;;20.23;75.96
23473;BME280;11909;52.516;13.564;2023-08-24T07:06:37;101200.28;;;20.41;73.10
23473;BME280;11909;52.516;13.564;2023-08-24T07:09:05;101192.31;;;20.31;74.52
23473;BME280;11909;52.516;13.564;2023-08-24T07:11:34;101185.44;;;20.28;76.21
23473;BME280;11909;52.516;13.564;2023-08-24T07:14:02;101189.84;;;20.29;76.08
23473;BME280;11909;52.516;13.564;2023-08-24T07:16:29;101189.97;;;20.42;74.10
23473;BME280;11909;52.516;13.564;2023-08-24T07:18:58;101201.59;;;20.44;74.96
23473;BME280;11909;52.516;13.564;2023-08-24T07:21:25;101196.91;;;20.57;72.47
23473;BME280;11909;52.516;13.564;2023-08-24T07:23:55;101204.28;;;20.53;72.67
23473;BME280;11909;52.516;13.564;2023-08-24T07:26:23;101201.38;;;20.49;73.54
23473;BME280;11909;52.516;13.564;2023-08-24T07:28:52;101196.75;;;20.53;74.11
23473;BME280;11909;52.516;13.564;2023-08-24T07:31:20;101185.63;;;20.53;74.72
23473;BME280;11909;52.516;13.564;2023-08-24T07:33:48;101193.44;;;20.60;73.97
23473;BME280;11909;52.516;13.564;2023-08-24T07:36:16;101182.56;;;20.67;74.11
23473;BME280;11909;52.516;13.564;2023-08-24T07:38:45;101189.56;;;20.73;73.66
23473;BME280;11909;52.516;13.564;2023-08-24T07:41:15;101182.50;;;20.76;75.20
23473;BME280;11909;52.516;13.564;2023-08-24T07:43:45;101201.25;;;20.97;70.04
23473;BME280;11909;52.516;13.564;2023-08-24T07:46:12;101184.56;;;20.88;71.28
23473;BME280;11909;52.516;13.564;2023-08-24T07:48:40;101198.78;;;21.16;67.67
23473;BME280;11909;52.516;13.564;2023-08-24T07:51:08;101202.03;;;21.18;67.60
23473;BME280;11909;52.516;13.564;2023-08-24T07:53:36;101196.38;;;21.27;67.69
23473;BME280;11909;52.516;13.564;2023-08-24T07:56:04;101187.72;;;21.20;68.65
23473;BME280;11909;52.516;13.564;2023-08-24T07:58:34;101201.50;;;21.25;67.48
23473;BME280;11909;52.516;13.564;2023-08-24T08:01:03;101200.34;;;21.26;66.29
23473;BME280;11909;52.516;13.564;2023-08-24T08:03:31;101185.78;;;21.33;67.96
23473;BME280;11909;52.516;13.564;2023-08-24T08:06:01;101187.31;;;21.30;69.66
23473;BME280;11909;52.516;13.564;2023-08-24T08:08:28;101185.69;;;21.29;70.23
23473;BME280;11909;52.516;13.564;2023-08-24T08:11:01;101190.97;;;21.43;68.46
23473;BME280;11909;52.516;13.564;2023-08-24T08:13:29;101193.91;;;21.59;65.56
23473;BME280;11909;52.516;13.564;2023-08-24T08:16:03;101198.97;;;21.78;64.69
23473;BME280;11909;52.516;13.564;2023-08-24T08:18:32;101199.16;;;21.95;62.61
23473;BME280;11909;52.516;13.564;2023-08-24T08:21:01;101196.81;;;22.09;61.88
23473;BME280;11909;52.516;13.564;2023-08-24T08:23:35;101204.03;;;22.23;61.81
23473;BME280;11909;52.516;13.564;2023-08-24T08:26:04;101196.69;;;22.18;61.14
23473;BME280;11909;52.516;13.564;2023-08-24T08:28:31;101178.66;;;22.15;62.35
23473;BME280;11909;52.516;13.564;2023-08-24T08:31:02;101178.53;;;22.12;63.37
23473;BME280;11909;52.516;13.564;2023-08-24T08:33:30;101181.69;;;22.23;62.11
23473;BME280;11909;52.516;13.564;2023-08-24T08:35:59;101181.09;;;22.29;60.93
23473;BME280;11909;52.516;13.564;2023-08-24T08:38:27;101166.28;;;22.29;62.05
23473;BME280;11909;52.516;13.564;2023-08-24T08:40:56;101172.59;;;22.38;60.69
23473;BME280;11909;52.516;13.564;2023-08-24T08:43:24;101181.19;;;22.33;59.37
23473;BME280;11909;52.516;13.564;2023-08-24T08:45:55;101169.78;;;22.26;61.81
23473;BME280;11909;52.516;13.564;2023-08-24T08:48:24;101180.38;;;22.32;60.14
23473;BME280;11909;52.516;13.564;2023-08-24T08:50:53;101167.81;;;22.26;59.83
23473;BME280;11909;52.516;13.564;2023-08-24T08:53:23;101165.59;;;22.19;60.53
23473;BME280;11909;52.516;13.564;2023-08-24T08:55:52;101155.13;;;22.16;62.43
23473;BME280;11909;52.516;13.564;2023-08-24T08:58:21;101152.22;;;22.13;61.27
23473;BME280;11909;52.516;13.564;2023-08-24T09:00:49;101144.06;;;22.08;62.71
23473;BME280;11909;52.516;13.564;2023-08-24T09:03:18;101150.69;;;22.03;64.12
23473;BME280;11909;52.516;13.564;2023-08-24T09:05:49;101145.44;;;22.01;63.18
23473;BME280;11909;52.516;13.564;2023-08-24T09:08:17;101149.78;;;21.99;63.73
23473;BME280;11909;52.516;13.564;2023-08-24T09:10:44;101145.81;;;22.00;65.79
23473;BME280;11909;52.516;13.564;2023-08-24T09:13:13;101143.34;;;21.98;67.00
23473;BME280;11909;52.516;13.564;2023-08-24T09:15:41;101146.63;;;22.13;63.29
23473;BME280;11909;52.516;13.564;2023-08-24T09:18:09;101154.41;;;22.07;63.43
23473;BME280;11909;52.516;13.564;2023-08-24T09:20:37;101143.59;;;22.18;63.88
23473;BME280;11909;52.516;13.564;2023-08-24T09:23:17;101155.78;;;22.63;60.41
23473;BME280;11909;52.516;13.564;2023-08-24T09:25:45;101147.78;;;22.90;59.15
23473;BME280;11909;52.516;13.564;2023-08-24T09:28:22;101143.19;;;22.98;59.16
23473;BME280;11909;52.516;13.564;2023-08-24T09:30:52;101146.69;;;22.95;57.87
23473;BME280;11909;52.516;13.564;2023-08-24T09:33:21;101144.53;;;22.88;59.59
23473;BME280;11909;52.516;13.564;2023-08-24T09:35:53;101141.50;;;22.81;60.58
23473;BME280;11909;52.516;13.564;2023-08-24T09:38:23;101140.56;;;22.89;58.51
23473;BME280;11909;52.516;13.564;2023-08-24T09:40:52;101136.28;;;23.08;56.95
23473;BME280;11909;52.516;13.564;2023-08-24T09:43:21;101127.41;;;23.05;57.35
23473;BME280;11909;52.516;13.564;2023-08-24T09:45:50;101124.25;;;23.07;56.91
23473;BME280;11909;52.516;13.564;2023-08-24T09:48:19;101134.28;;;23.37;56.12
23473;BME280;11909;52.516;13.564;2023-08-24T09:50:48;101119.66;;;23.59;55.25
23473;BME280;11909;52.516;13.564;2023-08-24T09:53:18;101123.91;;;23.69;57.72
23473;BME280;11909;52.516;13.564;2023-08-24T09:55:53;101114.75;;;23.88;57.12
23473;BME280;11909;52.516;13.564;2023-08-24T09:58:22;101121.66;;;24.07;55.95
23473;BME280;11909;52.516;13.564;2023-08-24T10:00:51;101122.16;;;24.29;53.91
23473;BME280;11909;52.516;13.564;2023-08-24T10:03:21;101120.25;;;24.53;50.75
23473;BME280;11909;52.516;13.564;2023-08-24T10:05:54;101111.53;;;24.58;52.73
23473;BME280;11909;52.516;13.564;2023-08-24T10:08:36;101109.97;;;24.76;52.59
23473;BME280;11909;52.516;13.564;2023-08-24T10:11:06;101106.69;;;24.94;53.46
23473;BME280;11909;52.516;13.564;2023-08-24T10:13:44;101115.47;;;25.12;50.36
23473;BME280;11909;52.516;13.564;2023-08-24T10:16:16;101118.28;;;25.35;48.52
23473;BME280;11909;52.516;13.564;2023-08-24T10:18:45;101121.66;;;25.45;47.88
23473;BME280;11909;52.516;13.564;2023-08-24T10:21:15;101113.25;;;25.45;47.64
23473;BME280;11909;52.516;13.564;2023-08-24T10:23:45;101108.97;;;25.51;50.47
23473;BME280;11909;52.516;13.564;2023-08-24T10:26:16;101118.41;;;25.62;48.85
23473;BME280;11909;52.516;13.564;2023-08-24T10:28:46;101118.25;;;25.79;47.93
23473;BME280;11909;52.516;13.564;2023-08-24T10:31:15;101122.78;;;25.87;45.23
23473;BME280;11909;52.516;13.564;2023-08-24T10:33:45;101115.19;;;25.87;45.77
23473;BME280;11909;52.516;13.564;2023-08-24T10:36:13;101111.28;;;25.96;45.05
23473;BME280;11909;52.516;13.564;2023-08-24T10:38:41;101117.75;;;26.00;44.32
23473;BME280;11909;52.516;13.564;2023-08-24T10:41:10;101104.28;;;26.13;45.07
23473;BME280;11909;52.516;13.564;2023-08-24T10:43:48;101113.75;;;26.24;46.44
23473;BME280;11909;52.516;13.564;2023-08-24T10:46:18;101118.66;;;26.31;45.11
23473;BME280;11909;52.516;13.564;2023-08-24T10:48:58;101109.06;;;26.36;46.13
23473;BME280;11909;52.516;13.564;2023-08-24T10:51:27;101112.88;;;26.51;44.69
23473;BME280;11909;52.516;13.564;2023-08-24T10:53:57;101113.41;;;26.60;45.41
23473;BME280;11909;52.516;13.564;2023-08-24T10:56:35;101118.22;;;26.59;45.23
23473;BME280;11909;52.516;13.564;2023-08-24T10:59:14;101119.94;;;26.68;43.99
23473;BME280;11909;52.516;13.564;2023-08-24T11:02:18;101104.19;;;26.63;45.53
23473;BME280;11909;52.516;13.564;2023-08-24T11:05:06;101094.19;;;26.66;46.46
23473;BME280;11909;52.516;13.564;2023-08-24T11:07:34;101094.28;;;26.73;45.44
23473;BME280;11909;52.516;13.564;2023-08-24T11:10:11;101104.84;;;26.83;44.42
23473;BME280;11909;52.516;13.564;2023-08-24T11:13:09;101088.34;;;26.82;44.08
23473;BME280;11909;52.516;13.564;2023-08-24T11:15:40;101073.13;;;26.86;46.30
23473;BME280;11909;52.516;13.564;2023-08-24T11:18:13;101064.03;;;27.00;45.70
23473;BME280;11909;52.516;13.564;2023-08-24T11:20:42;101061.22;;;27.00;44.59
23473;BME280;11909;52.516;13.564;2023-08-24T11:23:11;101058.47;;;27.08;45.65
23473;BME280;11909;52.516;13.564;2023-08-24T11:25:39;101053.69;;;27.12;45.00
23473;BME280;11909;52.516;13.564;2023-08-24T11:28:07;101051.31;;;27.17;44.08
23473;BME280;11909;52.516;13.564;2023-08-24T11:30:35;101049.72;;;27.20;45.37
23473;BME280;11909;52.516;13.564;2023-08-24T11:33:04;101048.19;;;27.26;47.23
23473;BME280;11909;52.516;13.564;2023-08-24T11:35:35;101052.31;;;27.40;47.17
23473;BME280;11909;52.516;13.564;2023-08-24T11:38:04;101044.00;;;27.54;45.45
23473;BME280;11909;52.516;13.564;2023-08-24T11:40:32;101046.03;;;27.57;42.80
23473;BME280;11909;52.516;13.564;2023-08-24T11:43:00;101032.78;;;27.61;43.84
23473;BME280;11909;52.516;13.564;2023-08-24T11:45:31;101029.63;;;27.70;45.13
23473;BME280;11909;52.516;13.564;2023-08-24T11:48:00;101024.41;;;27.72;45.73
23473;BME280;11909;52.516;13.564;2023-08-24T11:50:32;101015.63;;;27.85;44.69
23473;BME280;11909;52.516;13.564;2023-08-24T11:53:01;101016.38;;;27.78;45.55
23473;BME280;11909;52.516;13.564;2023-08-24T11:55:29;101010.78;;;27.82;46.35
23473;BME280;11909;52.516;13.564;2023-08-24T11:57:57;101002.69;;;27.80;45.93
23473;BME280;11909;52.516;13.564;2023-08-24T12:00:26;100998.28;;;27.86;46.04
23473;BME280;11909;52.516;13.564;2023-08-24T12:02:57;100990.72;;;27.98;48.58
23473;BME280;11909;52.516;13.564;2023-08-24T12:05:26;101005.25;;;28.07;43.16
23473;BME280;11909;52.516;13.564;2023-08-24T12:07:56;101000.84;;;28.13;43.38
23473;BME280;11909;52.516;13.564;2023-08-24T12:10:24;101006.47;;;28.10;43.29
23473;BME280;11909;52.516;13.564;2023-08-24T12:13:02;101011.34;;;28.13;40.76
23473;BME280;11909;52.516;13.564;2023-08-24T12:15:30;101001.13;;;27.86;44.60
23473;BME280;11909;52.516;13.564;2023-08-24T12:18:06;100990.63;;;27.83;46.73
23473;BME280;11909;52.516;13.564;2023-08-24T12:20:34;101003.53;;;27.81;45.83
23473;BME280;11909;52.516;13.564;2023-08-24T12:23:06;101001.13;;;27.83;44.15
23473;BME280;11909;52.516;13.564;2023-08-24T12:25:36;100993.13;;;27.96;43.51
23473;BME280;11909;52.516;13.564;2023-08-24T12:28:09;100980.22;;;27.98;46.05
23473;BME280;11909;52.516;13.564;2023-08-24T12:30:47;100975.00;;;28.00;45.73
23473;BME280;11909;52.516;13.564;2023-08-24T12:33:22;100964.13;;;28.02;47.63
23473;BME280;11909;52.516;13.564;2023-08-24T12:35:50;100969.75;;;28.02;45.47
23473;BME280;11909;52.516;13.564;2023-08-24T12:38:20;100974.22;;;28.03;44.18
23473;BME280;11909;52.516;13.564;2023-08-24T12:40:48;100984.19;;;27.83;42.69
23473;BME280;11909;52.516;13.564;2023-08-24T12:43:16;100970.38;;;27.67;45.47
23473;BME280;11909;52.516;13.564;2023-08-24T12:45:44;100971.88;;;27.49;45.25
23473;BME280;11909;52.516;13.564;2023-08-24T12:48:12;100961.41;;;27.50;45.01
23473;BME280;11909;52.516;13.564;2023-08-24T12:50:40;100942.56;;;27.61;50.08